sensor_id;sensor_type;location;lat;lon;timestamp;P1;durP1;ratioP1;P2;durP2;ratioP2
45049;SDS011;61798;48.048;-1.928;2024-02-21T00:00:38;3.97;;;1.95;;
45049;SDS011;61798;48.048;-1.928;2024-02-21T00:02:45;2.63;;;1.80;;
45049;SDS011;61798;48.048;-1.928;2024-02-21T00:04:51;3.60;;;1.73;;
45049;SDS011;61798;48.048;-1.928;2024-02-21T00:06:58;4.35;;;2.00;;
45049;SDS011;61798;48.048;-1.928;2024-02-21T00:09:06;3.45;;;1.92;;
45049;SDS011;61798;48.048;-1.928;2024-02-21T00:11:13;2.90;;;1.92;;
45049;SDS011;61798;48.048;-1.928;2024-02-21T00:13:20;1.65;;;1.50;;
45049;SDS011;61798;48.048;-1.928;2024-02-21T00:15:27;3.50;;;2.30;;
45049;SDS011;61798;48.048;-1.928;2024-02-21T00:17:34;3.42;;;2.00;;
45049;SDS011;61798;48.048;-1.928;2024-02-21T00:19:41;2.30;;;1.60;;
45049;SDS011;61798;48.048;-1.928;2024-02-21T00:21:48;3.15;;;2.03;;
45049;SDS011;61798;48.048;-1.928;2024-02-21T00:23:55;3.13;;;1.70;;
45049;SDS011;61798;48.048;-1.928;2024-02-21T00:26:02;2.00;;;1.73;;
45049;SDS011;61798;48.048;-1.928;2024-02-21T00:28:09;2.45;;;1.65;;
45049;SDS011;61798;48.048;-1.928;2024-02-21T00:30:18;2.50;;;1.33;;
45049;SDS011;61798;48.048;-1.928;2024-02-21T00:32:25;1.80;;;1.13;;
45049;SDS011;61798;48.048;-1.928;2024-02-21T00:34:33;3.00;;;1.50;;
45049;SDS011;61798;48.048;-1.928;2024-02-21T00:36:40;4.50;;;1.70;;
45049;SDS011;61798;48.048;-1.928;2024-02-21T00:38:47;3.63;;;1.77;;
45049;SDS011;61798;48.048;-1.928;2024-02-21T00:40:54;3.85;;;1.33;;
45049;SDS011;61798;48.048;-1.928;2024-02-21T00:43:01;2.15;;;1.52;;
45049;SDS011;61798;48.048;-1.928;2024-02-21T00:45:08;2.85;;;1.50;;
45049;SDS011;61798;48.048;-1.928;2024-02-21T00:47:16;2.58;;;1.67;;
45049;SDS011;61798;48.048;-1.928;2024-02-21T00:49:23;2.60;;;1.52;;
45049;SDS011;61798;48.048;-1.928;2024-02-21T00:51:29;3.67;;;1.40;;
45049;SDS011;61798;48.048;-1.928;2024-02-21T00:53:37;3.38;;;1.50;;
45049;SDS011;61798;48.048;-1.928;2024-02-21T00:55:44;6.72;;;1.67;;
45049;SDS011;61798;48.048;-1.928;2024-02-21T00:57:50;4.25;;;1.92;;
45049;SDS011;61798;48.048;-1.928;2024-02-21T00:59:57;8.18;;;2.33;;
45049;SDS011;61798;48.048;-1.928;2024-02-21T01:02:04;4.60;;;2.00;;
45049;SDS011;61798;48.048;-1.928;2024-02-21T01:04:11;5.20;;;2.40;;
45049;SDS011;61798;48.048;-1.928;2024-02-21T01:06:19;7.32;;;2.33;;
45049;SDS011;61798;48.048;-1.928;2024-02-21T01:08:26;4.68;;;1.95;;
45049;SDS011;61798;48.048;-1.928;2024-02-21T01:10:33;3.03;;;2.03;;
45049;SDS011;61798;48.048;-1.928;2024-02-21T01:12:41;4.18;;;2.10;;
45049;SDS011;61798;48.048;-1.928;2024-02-21T01:14:47;3.50;;;2.17;;
45049;SDS011;61798;48.048;-1.928;2024-02-21T01:16:56;1.80;;;1.33;;
45049;SDS011;61798;48.048;-1.928;2024-02-21T01:19:03;6.03;;;1.75;;
45049;SDS011;61798;48.048;-1.928;2024-02-21T01:21:10;2.90;;;1.98;;
45049;SDS011;61798;48.048;-1.928;2024-02-21T01:23:17;5.57;;;2.42;;
45049;SDS011;61798;48.048;-1.928;2024-02-21T01:25:25;5.18;;;2.13;;
45049;SDS011;61798;48.048;-1.928;2024-02-21T01:27:32;3.72;;;1.40;;
45049;SDS011;61798;48.048;-1.928;2024-02-21T01:29:40;7.50;;;2.10;;
45049;SDS011;61798;48.048;-1.928;2024-02-21T01:31:47;4.68;;;1.60;;
45049;SDS011;61798;48.048;-1.928;2024-02-21T01:33:54;2.88;;;2.05;;
45049;SDS011;61798;48.048;-1.928;2024-02-21T01:36:02;7.00;;;2.10;;
45049;SDS011;61798;48.048;-1.928;2024-02-21T01:38:09;5.28;;;2.33;;
45049;SDS011;61798;48.048;-1.928;2024-02-21T01:40:19;8.15;;;2.17;;
45049;SDS011;61798;48.048;-1.928;2024-02-21T01:42:26;10.05;;;2.53;;
45049;SDS011;61798;48.048;-1.928;2024-02-21T01:44:33;7.00;;;1.88;;
45049;SDS011;61798;48.048;-1.928;2024-02-21T01:46:41;8.18;;;2.40;;
45049;SDS011;61798;48.048;-1.928;2024-02-21T01:48:48;2.88;;;1.50;;
45049;SDS011;61798;48.048;-1.928;2024-02-21T01:50:55;7.25;;;1.83;;
45049;SDS011;61798;48.048;-1.928;2024-02-21T01:53:03;3.05;;;1.95;;
45049;SDS011;61798;48.048;-1.928;2024-02-21T01:55:10;4.55;;;1.67;;
45049;SDS011;61798;48.048;-1.928;2024-02-21T01:57:20;10.10;;;2.03;;
45049;SDS011;61798;48.048;-1.928;2024-02-21T01:59:27;1.95;;;1.35;;
45049;SDS011;61798;48.048;-1.928;2024-02-21T02:01:35;5.60;;;2.20;;
45049;SDS011;61798;48.048;-1.928;2024-02-21T02:03:42;5.28;;;2.05;;
45049;SDS011;61798;48.048;-1.928;2024-02-21T02:05:49;3.92;;;1.60;;
45049;SDS011;61798;48.048;-1.928;2024-02-21T02:07:56;8.52;;;1.63;;
45049;SDS011;61798;48.048;-1.928;2024-02-21T02:10:03;11.25;;;1.80;;
45049;SDS011;61798;48.048;-1.928;2024-02-21T02:12:09;7.50;;;1.50;;
45049;SDS011;61798;48.048;-1.928;2024-02-21T02:14:15;3.53;;;2.15;;
45049;SDS011;61798;48.048;-1.928;2024-02-21T02:16:21;7.55;;;1.63;;
45049;SDS011;61798;48.048;-1.928;2024-02-21T02:18:26;3.45;;;1.50;;
45049;SDS011;61798;48.048;-1.928;2024-02-21T02:20:32;1.60;;;1.23;;
45049;SDS011;61798;48.048;-1.928;2024-02-21T02:22:38;2.53;;;1.25;;
45049;SDS011;61798;48.048;-1.928;2024-02-21T02:24:46;4.03;;;1.20;;
45049;SDS011;61798;48.048;-1.928;2024-02-21T02:26:52;3.00;;;1.35;;
45049;SDS011;61798;48.048;-1.928;2024-02-21T02:28:58;2.85;;;1.40;;
45049;SDS011;61798;48.048;-1.928;2024-02-21T02:31:03;5.40;;;1.20;;
45049;SDS011;61798;48.048;-1.928;2024-02-21T02:33:10;1.70;;;1.10;;
45049;SDS011;61798;48.048;-1.928;2024-02-21T02:35:16;7.25;;;1.10;;
45049;SDS011;61798;48.048;-1.928;2024-02-21T02:37:22;1.73;;;1.30;;
45049;SDS011;61798;48.048;-1.928;2024-02-21T02:39:28;5.32;;;1.10;;
45049;SDS011;61798;48.048;-1.928;2024-02-21T02:41:36;1.98;;;1.33;;
45049;SDS011;61798;48.048;-1.928;2024-02-21T02:43:42;2.97;;;1.10;;
45049;SDS011;61798;48.048;-1.928;2024-02-21T02:45:48;5.50;;;1.23;;
45049;SDS011;61798;48.048;-1.928;2024-02-21T02:47:54;1.40;;;0.85;;
45049;SDS011;61798;48.048;-1.928;2024-02-21T02:50:02;3.08;;;1.00;;
45049;SDS011;61798;48.048;-1.928;2024-02-21T02:52:08;4.35;;;1.40;;
45049;SDS011;61798;48.048;-1.928;2024-02-21T02:54:14;10.25;;;2.05;;
45049;SDS011;61798;48.048;-1.928;2024-02-21T02:56:19;4.82;;;1.30;;
45049;SDS011;61798;48.048;-1.928;2024-02-21T02:58:25;3.60;;;1.00;;
45049;SDS011;61798;48.048;-1.928;2024-02-21T03:00:31;2.00;;;1.23;;
45049;SDS011;61798;48.048;-1.928;2024-02-21T03:02:42;1.67;;;1.17;;
45049;SDS011;61798;48.048;-1.928;2024-02-21T03:04:51;7.32;;;1.25;;
45049;SDS011;61798;48.048;-1.928;2024-02-21T03:06:57;4.55;;;1.65;;
45049;SDS011;61798;48.048;-1.928;2024-02-21T03:09:02;2.25;;;1.15;;
45049;SDS011;61798;48.048;-1.928;2024-02-21T03:11:13;4.28;;;1.10;;
45049;SDS011;61798;48.048;-1.928;2024-02-21T03:13:19;3.90;;;1.20;;
45049;SDS011;61798;48.048;-1.928;2024-02-21T03:15:25;4.35;;;1.27;;
45049;SDS011;61798;48.048;-1.928;2024-02-21T03:17:31;1.38;;;0.95;;
45049;SDS011;61798;48.048;-1.928;2024-02-21T03:19:39;5.15;;;1.30;;
45049;SDS011;61798;48.048;-1.928;2024-02-21T03:21:45;3.38;;;1.17;;
45049;SDS011;61798;48.048;-1.928;2024-02-21T03:23:51;3.72;;;1.00;;
45049;SDS011;61798;48.048;-1.928;2024-02-21T03:25:56;5.68;;;1.02;;
45049;SDS011;61798;48.048;-1.928;2024-02-21T03:28:02;6.10;;;1.20;;
45049;SDS011;61798;48.048;-1.928;2024-02-21T03:30:10;0.93;;;0.82;;
45049;SDS011;61798;48.048;-1.928;2024-02-21T03:32:17;5.00;;;1.42;;
45049;SDS011;61798;48.048;-1.928;2024-02-21T03:34:23;3.88;;;1.10;;
45049;SDS011;61798;48.048;-1.928;2024-02-21T03:36:29;3.70;;;1.20;;
45049;SDS011;61798;48.048;-1.928;2024-02-21T03:38:35;4.00;;;1.10;;
45049;SDS011;61798;48.048;-1.928;2024-02-21T03:40:41;4.43;;;1.08;;
45049;SDS011;61798;48.048;-1.928;2024-02-21T03:42:47;4.25;;;1.42;;
45049;SDS011;61798;48.048;-1.928;2024-02-21T03:44:52;4.10;;;1.17;;
45049;SDS011;61798;48.048;-1.928;2024-02-21T03:46:58;4.63;;;1.67;;
45049;SDS011;61798;48.048;-1.928;2024-02-21T03:49:05;1.73;;;1.10;;
45049;SDS011;61798;48.048;-1.928;2024-02-21T03:51:11;2.53;;;1.08;;
45049;SDS011;61798;48.048;-1.928;2024-02-21T03:53:17;3.35;;;1.17;;
45049;SDS011;61798;48.048;-1.928;2024-02-21T03:55:23;6.60;;;1.02;;
45049;SDS011;61798;48.048;-1.928;2024-02-21T03:57:28;6.82;;;1.35;;
45049;SDS011;61798;48.048;-1.928;2024-02-21T03:59:34;3.30;;;1.27;;
45049;SDS011;61798;48.048;-1.928;2024-02-21T04:01:40;5.80;;;1.40;;
45049;SDS011;61798;48.048;-1.928;2024-02-21T04:03:46;3.72;;;1.13;;
45049;SDS011;61798;48.048;-1.928;2024-02-21T04:05:52;8.05;;;1.20;;
45049;SDS011;61798;48.048;-1.928;2024-02-21T04:07:57;6.38;;;1.77;;
45049;SDS011;61798;48.048;-1.928;2024-02-21T04:10:04;4.88;;;1.60;;
45049;SDS011;61798;48.048;-1.928;2024-02-21T04:12:10;3.42;;;1.20;;
45049;SDS011;61798;48.048;-1.928;2024-02-21T04:14:16;2.17;;;1.10;;
45049;SDS011;61798;48.048;-1.928;2024-02-21T04:16:22;5.65;;;1.48;;
45049;SDS011;61798;48.048;-1.928;2024-02-21T04:18:27;3.50;;;1.55;;
45049;SDS011;61798;48.048;-1.928;2024-02-21T04:20:34;3.28;;;1.33;;
45049;SDS011;61798;48.048;-1.928;2024-02-21T04:22:40;3.92;;;1.23;;
45049;SDS011;61798;48.048;-1.928;2024-02-21T04:24:48;3.08;;;1.23;;
45049;SDS011;61798;48.048;-1.928;2024-02-21T04:26:54;2.67;;;1.05;;
45049;SDS011;61798;48.048;-1.928;2024-02-21T04:29:00;5.65;;;1.20;;
45049;SDS011;61798;48.048;-1.928;2024-02-21T04:31:05;5.40;;;1.30;;
45049;SDS011;61798;48.048;-1.928;2024-02-21T04:33:11;3.47;;;1.40;;
45049;SDS011;61798;48.048;-1.928;2024-02-21T04:35:17;6.57;;;2.13;;
45049;SDS011;61798;48.048;-1.928;2024-02-21T04:37:23;6.38;;;1.33;;
45049;SDS011;61798;48.048;-1.928;2024-02-21T04:39:29;1.40;;;0.90;;
45049;SDS011;61798;48.048;-1.928;2024-02-21T04:41:35;4.47;;;1.55;;
45049;SDS011;61798;48.048;-1.928;2024-02-21T04:43:41;2.92;;;1.17;;
45049;SDS011;61798;48.048;-1.928;2024-02-21T04:45:48;8.93;;;1.30;;
45049;SDS011;61798;48.048;-1.928;2024-02-21T04:47:55;6.47;;;1.35;;
45049;SDS011;61798;48.048;-1.928;2024-02-21T04:50:03;3.58;;;1.20;;
45049;SDS011;61798;48.048;-1.928;2024-02-21T04:52:09;1.08;;;0.82;;
45049;SDS011;61798;48.048;-1.928;2024-02-21T04:54:16;4.10;;;1.20;;
45049;SDS011;61798;48.048;-1.928;2024-02-21T04:56:23;2.33;;;0.98;;
45049;SDS011;61798;48.048;-1.928;2024-02-21T04:58:30;4.70;;;1.40;;
45049;SDS011;61798;48.048;-1.928;2024-02-21T05:00:37;7.22;;;1.52;;
45049;SDS011;61798;48.048;-1.928;2024-02-21T05:02:43;4.80;;;1.33;;
45049;SDS011;61798;48.048;-1.928;2024-02-21T05:04:51;4.25;;;1.17;;
45049;SDS011;61798;48.048;-1.928;2024-02-21T05:06:59;7.03;;;1.30;;
45049;SDS011;61798;48.048;-1.928;2024-02-21T05:09:08;7.30;;;1.10;;
45049;SDS011;61798;48.048;-1.928;2024-02-21T05:11:15;5.18;;;1.23;;
45049;SDS011;61798;48.048;-1.928;2024-02-21T05:13:22;2.75;;;1.48;;
45049;SDS011;61798;48.048;-1.928;2024-02-21T05:15:29;2.63;;;1.40;;
45049;SDS011;61798;48.048;-1.928;2024-02-21T05:17:36;1.55;;;1.25;;
45049;SDS011;61798;48.048;-1.928;2024-02-21T05:19:43;5.45;;;1.33;;
45049;SDS011;61798;48.048;-1.928;2024-02-21T05:21:50;3.40;;;1.42;;
45049;SDS011;61798;48.048;-1.928;2024-02-21T05:23:57;1.98;;;1.17;;
45049;SDS011;61798;48.048;-1.928;2024-02-21T05:26:04;2.42;;;1.35;;
45049;SDS011;61798;48.048;-1.928;2024-02-21T05:28:12;1.30;;;0.93;;
45049;SDS011;61798;48.048;-1.928;2024-02-21T05:30:19;2.20;;;1.30;;
45049;SDS011;61798;48.048;-1.928;2024-02-21T05:32:27;6.80;;;1.30;;
45049;SDS011;61798;48.048;-1.928;2024-02-21T05:34:34;10.55;;;1.23;;
45049;SDS011;61798;48.048;-1.928;2024-02-21T05:36:41;6.07;;;1.65;;
45049;SDS011;61798;48.048;-1.928;2024-02-21T05:38:48;4.18;;;1.38;;
45049;SDS011;61798;48.048;-1.928;2024-02-21T05:40:55;2.75;;;1.30;;
45049;SDS011;61798;48.048;-1.928;2024-02-21T05:43:03;6.38;;;1.40;;
45049;SDS011;61798;48.048;-1.928;2024-02-21T05:45:11;5.15;;;1.50;;
45049;SDS011;61798;48.048;-1.928;2024-02-21T05:47:18;7.68;;;1.35;;
45049;SDS011;61798;48.048;-1.928;2024-02-21T05:49:27;3.42;;;1.25;;
45049;SDS011;61798;48.048;-1.928;2024-02-21T05:51:34;2.65;;;1.10;;
45049;SDS011;61798;48.048;-1.928;2024-02-21T05:53:43;4.28;;;1.30;;
45049;SDS011;61798;48.048;-1.928;2024-02-21T05:55:50;6.07;;;1.55;;
45049;SDS011;61798;48.048;-1.928;2024-02-21T05:57:57;3.38;;;1.45;;
45049;SDS011;61798;48.048;-1.928;2024-02-21T06:00:04;3.63;;;1.23;;
45049;SDS011;61798;48.048;-1.928;2024-02-21T06:02:12;3.25;;;1.35;;
45049;SDS011;61798;48.048;-1.928;2024-02-21T06:04:20;4.20;;;1.60;;
45049;SDS011;61798;48.048;-1.928;2024-02-21T06:06:26;2.67;;;1.25;;
45049;SDS011;61798;48.048;-1.928;2024-02-21T06:08:33;4.63;;;1.63;;
45049;SDS011;61798;48.048;-1.928;2024-02-21T06:10:39;2.03;;;1.40;;
45049;SDS011;61798;48.048;-1.928;2024-02-21T06:12:45;4.07;;;1.50;;
45049;SDS011;61798;48.048;-1.928;2024-02-21T06:14:52;5.28;;;1.30;;
45049;SDS011;61798;48.048;-1.928;2024-02-21T06:16:59;5.72;;;1.70;;
45049;SDS011;61798;48.048;-1.928;2024-02-21T06:19:06;2.53;;;1.50;;
45049;SDS011;61798;48.048;-1.928;2024-02-21T06:21:13;6.70;;;2.05;;
45049;SDS011;61798;48.048;-1.928;2024-02-21T06:23:20;4.55;;;1.52;;
45049;SDS011;61798;48.048;-1.928;2024-02-21T06:25:27;7.78;;;1.77;;
45049;SDS011;61798;48.048;-1.928;2024-02-21T06:27:34;6.93;;;2.15;;
45049;SDS011;61798;48.048;-1.928;2024-02-21T06:29:42;5.72;;;1.50;;
45049;SDS011;61798;48.048;-1.928;2024-02-21T06:31:49;4.95;;;1.60;;
45049;SDS011;61798;48.048;-1.928;2024-02-21T06:33:56;10.18;;;2.22;;
45049;SDS011;61798;48.048;-1.928;2024-02-21T06:36:02;11.13;;;2.45;;
45049;SDS011;61798;48.048;-1.928;2024-02-21T06:38:09;7.05;;;1.63;;
45049;SDS011;61798;48.048;-1.928;2024-02-21T06:40:17;6.82;;;1.70;;
45049;SDS011;61798;48.048;-1.928;2024-02-21T06:42:28;6.95;;;1.77;;
45049;SDS011;61798;48.048;-1.928;2024-02-21T06:44:36;12.75;;;1.77;;
45049;SDS011;61798;48.048;-1.928;2024-02-21T06:46:46;6.47;;;1.73;;
45049;SDS011;61798;48.048;-1.928;2024-02-21T06:48:54;6.10;;;1.90;;
45049;SDS011;61798;48.048;-1.928;2024-02-21T06:51:01;2.63;;;1.50;;
45049;SDS011;61798;48.048;-1.928;2024-02-21T06:53:09;4.95;;;2.22;;
45049;SDS011;61798;48.048;-1.928;2024-02-21T06:55:16;3.13;;;2.10;;
45049;SDS011;61798;48.048;-1.928;2024-02-21T06:57:23;2.80;;;1.90;;
45049;SDS011;61798;48.048;-1.928;2024-02-21T06:59:29;9.10;;;2.83;;
45049;SDS011;61798;48.048;-1.928;2024-02-21T07:01:37;10.23;;;2.28;;
45049;SDS011;61798;48.048;-1.928;2024-02-21T07:03:44;6.60;;;2.10;;
45049;SDS011;61798;48.048;-1.928;2024-02-21T07:05:51;5.63;;;2.00;;
45049;SDS011;61798;48.048;-1.928;2024-02-21T07:07:58;5.15;;;2.42;;
45049;SDS011;61798;48.048;-1.928;2024-02-21T07:10:06;7.28;;;2.58;;
45049;SDS011;61798;48.048;-1.928;2024-02-21T07:12:13;6.68;;;3.38;;
45049;SDS011;61798;48.048;-1.928;2024-02-21T07:14:19;9.32;;;3.28;;
45049;SDS011;61798;48.048;-1.928;2024-02-21T07:16:24;9.38;;;3.47;;
45049;SDS011;61798;48.048;-1.928;2024-02-21T07:18:32;5.82;;;2.97;;
45049;SDS011;61798;48.048;-1.928;2024-02-21T07:20:37;4.43;;;2.80;;
45049;SDS011;61798;48.048;-1.928;2024-02-21T07:22:43;9.45;;;3.13;;
45049;SDS011;61798;48.048;-1.928;2024-02-21T07:24:49;6.45;;;2.80;;
45049;SDS011;61798;48.048;-1.928;2024-02-21T07:26:56;5.07;;;2.60;;
45049;SDS011;61798;48.048;-1.928;2024-02-21T07:29:04;10.00;;;2.63;;
45049;SDS011;61798;48.048;-1.928;2024-02-21T07:31:09;12.05;;;3.20;;
45049;SDS011;61798;48.048;-1.928;2024-02-21T07:33:16;10.70;;;2.67;;
45049;SDS011;61798;48.048;-1.928;2024-02-21T07:35:24;8.63;;;2.58;;
45049;SDS011;61798;48.048;-1.928;2024-02-21T07:37:34;12.23;;;2.53;;
45049;SDS011;61798;48.048;-1.928;2024-02-21T07:39:42;4.32;;;2.45;;
45049;SDS011;61798;48.048;-1.928;2024-02-21T07:41:49;10.95;;;2.80;;
45049;SDS011;61798;48.048;-1.928;2024-02-21T07:43:56;7.05;;;2.28;;
45049;SDS011;61798;48.048;-1.928;2024-02-21T07:46:04;9.73;;;2.50;;
45049;SDS011;61798;48.048;-1.928;2024-02-21T07:48:11;9.43;;;3.15;;
45049;SDS011;61798;48.048;-1.928;2024-02-21T07:50:18;6.90;;;2.20;;
45049;SDS011;61798;48.048;-1.928;2024-02-21T07:52:25;6.65;;;2.35;;
45049;SDS011;61798;48.048;-1.928;2024-02-21T07:54:31;7.05;;;1.77;;
45049;SDS011;61798;48.048;-1.928;2024-02-21T07:56:39;10.07;;;2.45;;
45049;SDS011;61798;48.048;-1.928;2024-02-21T07:58:46;3.28;;;2.30;;
45049;SDS011;61798;48.048;-1.928;2024-02-21T08:00:53;6.85;;;2.53;;
45049;SDS011;61798;48.048;-1.928;2024-02-21T08:02:59;10.63;;;2.45;;
45049;SDS011;61798;48.048;-1.928;2024-02-21T08:05:06;7.55;;;2.70;;
45049;SDS011;61798;48.048;-1.928;2024-02-21T08:07:12;10.05;;;3.95;;
45049;SDS011;61798;48.048;-1.928;2024-02-21T08:09:19;12.80;;;3.20;;
45049;SDS011;61798;48.048;-1.928;2024-02-21T08:11:25;10.57;;;3.55;;
45049;SDS011;61798;48.048;-1.928;2024-02-21T08:13:31;9.77;;;3.05;;
45049;SDS011;61798;48.048;-1.928;2024-02-21T08:15:38;8.57;;;2.83;;
45049;SDS011;61798;48.048;-1.928;2024-02-21T08:17:45;6.00;;;2.15;;
45049;SDS011;61798;48.048;-1.928;2024-02-21T08:19:50;6.43;;;2.10;;
45049;SDS011;61798;48.048;-1.928;2024-02-21T08:21:56;6.72;;;2.10;;
45049;SDS011;61798;48.048;-1.928;2024-02-21T08:24:02;8.95;;;2.25;;
45049;SDS011;61798;48.048;-1.928;2024-02-21T08:26:08;5.88;;;2.00;;
45049;SDS011;61798;48.048;-1.928;2024-02-21T08:28:14;6.40;;;2.35;;
45049;SDS011;61798;48.048;-1.928;2024-02-21T08:30:21;3.35;;;1.92;;
45049;SDS011;61798;48.048;-1.928;2024-02-21T08:32:28;11.15;;;2.17;;
45049;SDS011;61798;48.048;-1.928;2024-02-21T08:34:35;9.65;;;2.53;;
45049;SDS011;61798;48.048;-1.928;2024-02-21T08:36:42;4.75;;;2.58;;
45049;SDS011;61798;48.048;-1.928;2024-02-21T08:38:50;10.85;;;4.07;;
45049;SDS011;61798;48.048;-1.928;2024-02-21T08:40:57;14.20;;;4.75;;
45049;SDS011;61798;48.048;-1.928;2024-02-21T08:43:03;12.38;;;3.47;;
45049;SDS011;61798;48.048;-1.928;2024-02-21T08:45:10;12.63;;;4.07;;
45049;SDS011;61798;48.048;-1.928;2024-02-21T08:47:17;14.43;;;4.50;;
45049;SDS011;61798;48.048;-1.928;2024-02-21T08:49:24;12.00;;;3.58;;
45049;SDS011;61798;48.048;-1.928;2024-02-21T08:51:33;8.43;;;4.18;;
45049;SDS011;61798;48.048;-1.928;2024-02-21T08:53:39;8.65;;;3.38;;
45049;SDS011;61798;48.048;-1.928;2024-02-21T08:55:46;10.90;;;3.53;;
45049;SDS011;61798;48.048;-1.928;2024-02-21T08:57:53;13.10;;;5.65;;
45049;SDS011;61798;48.048;-1.928;2024-02-21T09:00:00;12.52;;;3.25;;
45049;SDS011;61798;48.048;-1.928;2024-02-21T09:02:07;21.08;;;6.28;;
45049;SDS011;61798;48.048;-1.928;2024-02-21T09:04:16;12.70;;;6.38;;
45049;SDS011;61798;48.048;-1.928;2024-02-21T09:06:23;12.23;;;2.65;;
45049;SDS011;61798;48.048;-1.928;2024-02-21T09:08:30;12.80;;;4.93;;
45049;SDS011;61798;48.048;-1.928;2024-02-21T09:10:39;17.45;;;5.95;;
45049;SDS011;61798;48.048;-1.928;2024-02-21T09:12:47;8.23;;;4.30;;
45049;SDS011;61798;48.048;-1.928;2024-02-21T09:14:54;16.75;;;3.90;;
45049;SDS011;61798;48.048;-1.928;2024-02-21T09:17:01;9.43;;;4.05;;
45049;SDS011;61798;48.048;-1.928;2024-02-21T09:19:08;7.93;;;3.72;;
45049;SDS011;61798;48.048;-1.928;2024-02-21T09:21:17;7.95;;;3.03;;
45049;SDS011;61798;48.048;-1.928;2024-02-21T09:23:27;17.33;;;4.00;;
45049;SDS011;61798;48.048;-1.928;2024-02-21T09:25:34;8.75;;;2.47;;
45049;SDS011;61798;48.048;-1.928;2024-02-21T09:27:43;13.05;;;3.20;;
45049;SDS011;61798;48.048;-1.928;2024-02-21T09:29:51;19.05;;;3.35;;
45049;SDS011;61798;48.048;-1.928;2024-02-21T09:31:57;13.15;;;3.38;;
45049;SDS011;61798;48.048;-1.928;2024-02-21T09:34:03;10.10;;;3.70;;
45049;SDS011;61798;48.048;-1.928;2024-02-21T09:36:09;12.25;;;2.70;;
45049;SDS011;61798;48.048;-1.928;2024-02-21T09:38:16;9.23;;;2.45;;
45049;SDS011;61798;48.048;-1.928;2024-02-21T09:40:23;8.98;;;2.60;;
45049;SDS011;61798;48.048;-1.928;2024-02-21T09:42:40;9.45;;;2.58;;
45049;SDS011;61798;48.048;-1.928;2024-02-21T09:44:47;13.27;;;2.55;;
45049;SDS011;61798;48.048;-1.928;2024-02-21T09:47:04;9.30;;;2.20;;
45049;SDS011;61798;48.048;-1.928;2024-02-21T09:49:32;8.77;;;2.40;;
45049;SDS011;61798;48.048;-1.928;2024-02-21T09:51:40;4.22;;;2.53;;
45049;SDS011;61798;48.048;-1.928;2024-02-21T09:53:50;9.45;;;2.35;;
45049;SDS011;61798;48.048;-1.928;2024-02-21T09:55:58;7.80;;;3.33;;
45049;SDS011;61798;48.048;-1.928;2024-02-21T09:58:04;9.40;;;2.40;;
45049;SDS011;61798;48.048;-1.928;2024-02-21T10:00:10;6.95;;;2.50;;
45049;SDS011;61798;48.048;-1.928;2024-02-21T10:02:19;7.85;;;2.25;;
45049;SDS011;61798;48.048;-1.928;2024-02-21T10:04:27;7.80;;;3.30;;
45049;SDS011;61798;48.048;-1.928;2024-02-21T10:06:35;10.13;;;3.22;;
45049;SDS011;61798;48.048;-1.928;2024-02-21T10:08:43;10.52;;;2.22;;
45049;SDS011;61798;48.048;-1.928;2024-02-21T10:10:58;8.25;;;3.15;;
45049;SDS011;61798;48.048;-1.928;2024-02-21T10:13:09;8.45;;;2.78;;
45049;SDS011;61798;48.048;-1.928;2024-02-21T10:15:20;4.97;;;2.28;;
45049;SDS011;61798;48.048;-1.928;2024-02-21T10:17:29;6.20;;;2.60;;
45049;SDS011;61798;48.048;-1.928;2024-02-21T10:19:37;7.65;;;2.38;;
45049;SDS011;61798;48.048;-1.928;2024-02-21T10:21:44;13.43;;;2.80;;
45049;SDS011;61798;48.048;-1.928;2024-02-21T10:23:50;7.95;;;2.55;;
45049;SDS011;61798;48.048;-1.928;2024-02-21T10:26:08;4.50;;;2.22;;
45049;SDS011;61798;48.048;-1.928;2024-02-21T10:28:16;8.38;;;2.63;;
45049;SDS011;61798;48.048;-1.928;2024-02-21T10:30:24;11.13;;;3.30;;
45049;SDS011;61798;48.048;-1.928;2024-02-21T10:32:31;8.45;;;2.92;;
45049;SDS011;61798;48.048;-1.928;2024-02-21T10:34:40;9.43;;;2.80;;
45049;SDS011;61798;48.048;-1.928;2024-02-21T10:36:48;4.20;;;2.38;;
45049;SDS011;61798;48.048;-1.928;2024-02-21T10:39:07;11.45;;;3.03;;
45049;SDS011;61798;48.048;-1.928;2024-02-21T10:41:15;6.25;;;2.47;;
45049;SDS011;61798;48.048;-1.928;2024-02-21T10:43:24;6.25;;;2.42;;
45049;SDS011;61798;48.048;-1.928;2024-02-21T10:45:36;4.70;;;2.28;;
45049;SDS011;61798;48.048;-1.928;2024-02-21T10:47:43;9.68;;;2.45;;
45049;SDS011;61798;48.048;-1.928;2024-02-21T10:50:03;7.07;;;2.65;;
45049;SDS011;61798;48.048;-1.928;2024-02-21T10:55:16;14.10;;;4.25;;
45049;SDS011;61798;48.048;-1.928;2024-02-21T10:57:41;5.68;;;2.88;;
45049;SDS011;61798;48.048;-1.928;2024-02-21T10:59:49;4.95;;;2.50;;
45049;SDS011;61798;48.048;-1.928;2024-02-21T11:01:56;11.18;;;3.78;;
45049;SDS011;61798;48.048;-1.928;2024-02-21T11:04:06;12.75;;;2.47;;
45049;SDS011;61798;48.048;-1.928;2024-02-21T11:06:18;5.35;;;1.80;;
45049;SDS011;61798;48.048;-1.928;2024-02-21T11:08:27;7.45;;;2.45;;
45049;SDS011;61798;48.048;-1.928;2024-02-21T11:10:36;10.93;;;2.08;;
45049;SDS011;61798;48.048;-1.928;2024-02-21T11:12:42;7.10;;;2.13;;
45049;SDS011;61798;48.048;-1.928;2024-02-21T11:14:49;5.63;;;2.33;;
45049;SDS011;61798;48.048;-1.928;2024-02-21T11:16:56;5.05;;;1.92;;
45049;SDS011;61798;48.048;-1.928;2024-02-21T11:19:05;4.80;;;1.88;;
45049;SDS011;61798;48.048;-1.928;2024-02-21T11:21:12;7.43;;;1.95;;
45049;SDS011;61798;48.048;-1.928;2024-02-21T11:23:26;11.63;;;2.17;;
45049;SDS011;61798;48.048;-1.928;2024-02-21T11:25:34;7.18;;;1.70;;
45049;SDS011;61798;48.048;-1.928;2024-02-21T11:27:49;6.78;;;1.95;;
45049;SDS011;61798;48.048;-1.928;2024-02-21T11:29:57;10.07;;;1.92;;
45049;SDS011;61798;48.048;-1.928;2024-02-21T11:32:05;7.00;;;2.22;;
45049;SDS011;61798;48.048;-1.928;2024-02-21T11:34:20;10.95;;;2.58;;
45049;SDS011;61798;48.048;-1.928;2024-02-21T11:36:28;5.05;;;1.73;;
45049;SDS011;61798;48.048;-1.928;2024-02-21T11:38:35;4.68;;;1.60;;
45049;SDS011;61798;48.048;-1.928;2024-02-21T11:40:45;5.53;;;1.75;;
45049;SDS011;61798;48.048;-1.928;2024-02-21T11:42:57;2.30;;;1.20;;
45049;SDS011;61798;48.048;-1.928;2024-02-21T11:45:06;11.68;;;1.90;;
45049;SDS011;61798;48.048;-1.928;2024-02-21T11:47:14;4.45;;;1.52;;
45049;SDS011;61798;48.048;-1.928;2024-02-21T11:49:21;8.20;;;1.50;;
45049;SDS011;61798;48.048;-1.928;2024-02-21T11:51:28;3.75;;;1.30;;
45049;SDS011;61798;48.048;-1.928;2024-02-21T11:53:35;8.85;;;1.90;;
45049;SDS011;61798;48.048;-1.928;2024-02-21T11:55:42;3.03;;;1.73;;
45049;SDS011;61798;48.048;-1.928;2024-02-21T11:57:48;10.85;;;1.90;;
45049;SDS011;61798;48.048;-1.928;2024-02-21T11:59:56;7.60;;;1.98;;
45049;SDS011;61798;48.048;-1.928;2024-02-21T12:02:03;5.32;;;2.03;;
45049;SDS011;61798;48.048;-1.928;2024-02-21T12:04:10;10.20;;;2.33;;
45049;SDS011;61798;48.048;-1.928;2024-02-21T12:06:17;6.38;;;2.20;;
45049;SDS011;61798;48.048;-1.928;2024-02-21T12:08:27;4.20;;;2.03;;
45049;SDS011;61798;48.048;-1.928;2024-02-21T12:10:36;4.13;;;1.95;;
45049;SDS011;61798;48.048;-1.928;2024-02-21T12:12:43;7.53;;;1.92;;
45049;SDS011;61798;48.048;-1.928;2024-02-21T12:14:59;15.10;;;2.00;;
45049;SDS011;61798;48.048;-1.928;2024-02-21T12:17:06;5.07;;;1.90;;
45049;SDS011;61798;48.048;-1.928;2024-02-21T12:19:13;5.07;;;1.95;;
45049;SDS011;61798;48.048;-1.928;2024-02-21T12:21:26;6.60;;;1.92;;
45049;SDS011;61798;48.048;-1.928;2024-02-21T12:23:37;5.60;;;1.80;;
45049;SDS011;61798;48.048;-1.928;2024-02-21T12:25:45;7.15;;;1.73;;
45049;SDS011;61798;48.048;-1.928;2024-02-21T12:27:52;3.03;;;1.65;;
45049;SDS011;61798;48.048;-1.928;2024-02-21T12:29:58;2.50;;;1.60;;
45049;SDS011;61798;48.048;-1.928;2024-02-21T12:32:05;7.07;;;1.85;;
45049;SDS011;61798;48.048;-1.928;2024-02-21T12:34:12;5.60;;;1.75;;
45049;SDS011;61798;48.048;-1.928;2024-02-21T12:36:19;8.68;;;1.52;;
45049;SDS011;61798;48.048;-1.928;2024-02-21T12:38:26;6.30;;;2.20;;